createdAt,value
2018-12-07T00:00:49.538Z,11.1
2018-12-07T00:01:39.942Z,11.1
2018-12-07T00:02:29.486Z,11.1
2018-12-07T00:03:18.919Z,11.1
2018-12-07T00:04:09.716Z,11.1
2018-12-07T00:04:59.879Z,11.1
2018-12-07T00:05:49.689Z,11.1
2018-12-07T00:06:39.824Z,11.1
2018-12-07T00:24:48.578Z,11
2018-12-07T00:25:37.695Z,11
2018-12-07T00:26:27.938Z,11
2018-12-07T00:27:18.470Z,11
2018-12-07T00:28:07.952Z,11
2018-12-07T00:28:57.785Z,11
2018-12-07T00:29:48.440Z,11
2018-12-07T00:30:38.416Z,11
2018-12-07T00:31:29.501Z,11
2018-12-07T00:32:18.613Z,11
2018-12-07T00:33:08.563Z,11
2018-12-07T00:33:56.807Z,11
2018-12-07T00:34:49.110Z,11
2018-12-07T00:35:38.749Z,11
2018-12-07T00:36:28.882Z,11
2018-12-07T00:37:18.864Z,11
2018-12-07T00:38:08.919Z,11.1
2018-12-07T00:38:59.029Z,11
2018-12-07T00:39:48.560Z,11
2018-12-07T00:40:38.619Z,11
2018-12-07T00:41:29.712Z,11
2018-12-07T00:42:18.367Z,11
2018-12-07T00:43:09.912Z,11.1
2018-12-07T00:43:59.624Z,11.1
2018-12-07T00:44:50.624Z,11.1
2018-12-07T00:45:39.403Z,11.1
2018-12-07T00:46:28.396Z,11.1
2018-12-07T00:47:19.264Z,11
2018-12-07T00:48:09.323Z,11.1
2018-12-07T00:49:00.439Z,11
2018-12-07T00:49:49.261Z,11
2018-12-07T00:50:39.547Z,11
2018-12-07T00:51:29.281Z,11
2018-12-07T00:52:18.772Z,11
2018-12-07T00:53:09.931Z,11
2018-12-07T00:54:00.298Z,11
2018-12-07T00:54:49.763Z,11
2018-12-07T00:55:40.645Z,11
2018-12-07T00:56:29.161Z,11
2018-12-07T00:57:19.380Z,11
2018-12-07T00:58:10.588Z,11
2018-12-07T00:59:00.305Z,11
2018-12-07T00:59:50.115Z,11
2018-12-07T01:00:39.963Z,11
2018-12-07T01:01:30.800Z,11
2018-12-07T01:02:19.802Z,11
2018-12-07T01:03:10.763Z,11
2018-12-07T01:04:01.270Z,11
2018-12-07T01:04:50.185Z,11
2018-12-07T01:05:41.302Z,11
2018-12-07T01:06:30.832Z,11
2018-12-07T01:07:20.360Z,11
2018-12-07T01:08:10.691Z,11
2018-12-07T01:09:00.750Z,11
2018-12-07T01:09:51.080Z,11
2018-12-07T01:10:41.207Z,11
2018-12-07T01:11:30.617Z,11
2018-12-07T01:12:20.772Z,11
2018-12-07T01:13:11.134Z,11
2018-12-07T01:14:02.315Z,11
2018-12-07T01:14:51.440Z,11
2018-12-07T01:15:41.860Z,11
2018-12-07T01:16:30.685Z,11
2018-12-07T01:17:21.834Z,11
2018-12-07T01:18:11.977Z,10.9
2018-12-07T01:19:01.232Z,10.9
2018-12-07T01:19:51.583Z,10.9
2018-12-07T01:20:41.685Z,10.9
2018-12-07T01:21:32.179Z,11
2018-12-07T01:22:22.241Z,11
2018-12-07T01:23:11.477Z,11
2018-12-07T01:24:01.844Z,11
2018-12-07T01:24:51.289Z,11
2018-12-07T01:25:43.019Z,11
2018-12-07T01:26:32.036Z,11
2018-12-07T01:27:21.686Z,10.9
2018-12-07T01:28:11.524Z,11
2018-12-07T01:29:01.837Z,10.9
2018-12-07T01:29:52.829Z,11
2018-12-07T01:30:42.771Z,10.9
2018-12-07T01:31:33.156Z,10.9
2018-12-07T01:32:23.201Z,10.9
2018-12-07T01:33:11.860Z,10.9
2018-12-07T01:34:02.501Z,10.9
2018-12-07T01:34:53.136Z,10.9
2018-12-07T01:35:42.973Z,10.9
2018-12-07T01:36:32.096Z,10.9
2018-12-07T01:37:23.856Z,10.9
2018-12-07T01:38:12.774Z,10.9
2018-12-07T01:39:03.088Z,10.9
2018-12-07T01:39:52.050Z,10.9
2018-12-07T01:40:43.016Z,10.9
2018-12-07T01:41:33.288Z,10.9
2018-12-07T01:42:23.585Z,11
2018-12-07T01:43:13.375Z,10.9
2018-12-07T01:44:03.453Z,11
2018-12-07T01:44:53.244Z,10.9
2018-12-07T01:45:43.545Z,10.9
2018-12-07T01:46:33.375Z,10.9
2018-12-07T01:47:23.930Z,10.9
2018-12-07T01:48:13.748Z,10.9
2018-12-07T01:49:02.215Z,10.9
2018-12-07T01:49:53.657Z,10.9
2018-12-07T01:50:43.185Z,10.9
2018-12-07T01:51:33.831Z,10.9
2018-12-07T01:52:23.872Z,10.9
2018-12-07T01:53:12.097Z,10.9
2018-12-07T01:54:03.389Z,10.9
2018-12-07T01:54:53.479Z,10.9
2018-12-07T01:55:44.304Z,10.9
2018-12-07T01:56:34.299Z,10.9
2018-12-07T01:57:24.911Z,10.9
2018-12-07T01:58:14.984Z,10.9
2018-12-07T01:59:03.641Z,10.9
2018-12-07T01:59:53.694Z,10.9
2018-12-07T02:00:44.636Z,10.9
2018-12-07T02:01:35.159Z,10.9
2018-12-07T02:02:24.251Z,10.9
2018-12-07T02:03:13.639Z,10.9
2018-12-07T02:04:04.839Z,10.9
2018-12-07T02:04:54.127Z,10.9
2018-12-07T02:05:44.928Z,10.9
2018-12-07T02:06:34.163Z,10.9
2018-12-07T02:07:25.303Z,10.9
2018-12-07T02:08:14.793Z,10.9
2018-12-07T02:09:04.706Z,10.9
2018-12-07T02:09:54.698Z,10.9
2018-12-07T02:10:45.849Z,10.9
2018-12-07T02:11:35.313Z,10.9
2018-12-07T02:12:24.511Z,10.9
2018-12-07T02:13:15.733Z,10.9
2018-12-07T02:14:05.265Z,10.9
2018-12-07T02:14:55.013Z,10.9
2018-12-07T02:15:45.071Z,10.9
2018-12-07T02:16:34.833Z,10.9
2018-12-07T02:17:25.330Z,10.9
2018-12-07T02:18:15.835Z,10.9
2018-12-07T02:19:05.551Z,10.9
2018-12-07T02:19:56.185Z,10.9
2018-12-07T02:20:45.970Z,10.9
2018-12-07T02:21:35.772Z,10.9
2018-12-07T02:22:25.600Z,10.9
2018-12-07T02:23:16.140Z,10.9
2018-12-07T02:24:06.205Z,10.9
2018-12-07T02:24:55.699Z,10.9
2018-12-07T02:25:46.858Z,10.9
2018-12-07T02:26:36.380Z,10.9
2018-12-07T02:27:26.123Z,10.8
2018-12-07T02:28:16.312Z,10.9
2018-12-07T02:29:06.614Z,10.9
2018-12-07T02:29:56.349Z,10.9
2018-12-07T02:30:46.177Z,10.9
2018-12-07T02:31:37.037Z,10.9
2018-12-07T02:32:26.841Z,10.8
2018-12-07T02:33:17.434Z,10.9
2018-12-07T02:34:06.934Z,10.9
2018-12-07T02:34:57.523Z,10.9
2018-12-07T02:35:46.174Z,10.9
2018-12-07T02:36:37.394Z,10.9
2018-12-07T02:37:27.426Z,10.8
2018-12-07T02:38:17.749Z,10.9
2018-12-07T02:39:07.488Z,10.9
2018-12-07T02:39:57.026Z,10.9
2018-12-07T02:40:48.105Z,10.9
2018-12-07T02:41:37.149Z,10.9
2018-12-07T02:42:27.484Z,10.9
2018-12-07T02:43:17.602Z,10.9
2018-12-07T02:44:07.426Z,10.8
2018-12-07T02:44:57.666Z,10.9
2018-12-07T02:45:47.431Z,10.8
2018-12-07T02:46:37.754Z,10.9
2018-12-07T02:47:27.668Z,10.8
2018-12-07T02:48:17.349Z,10.8
2018-12-07T02:49:08.049Z,10.8
2018-12-07T02:49:58.043Z,10.8
2018-12-07T02:50:48.031Z,10.8
2018-12-07T02:51:37.829Z,10.8
2018-12-07T02:52:28.318Z,10.8
2018-12-07T02:53:17.973Z,10.8
2018-12-07T02:54:08.133Z,10.8
2018-12-07T02:54:57.212Z,10.8
2018-12-07T02:55:48.157Z,10.8
2018-12-07T02:56:37.680Z,10.8
2018-12-07T02:57:27.978Z,10.8
2018-12-07T02:58:18.293Z,10.8
2018-12-07T02:59:07.780Z,10.8
2018-12-07T02:59:58.493Z,10.8
2018-12-07T03:00:49.073Z,10.8
2018-12-07T03:01:37.957Z,10.8
2018-12-07T03:02:28.585Z,10.8
2018-12-07T03:03:18.355Z,10.8
2018-12-07T03:04:09.625Z,10.8
2018-12-07T03:04:58.447Z,10.8
2018-12-07T03:05:49.102Z,10.8
2018-12-07T03:06:39.157Z,10.8
2018-12-07T03:07:28.664Z,10.8
2018-12-07T03:08:19.517Z,10.8
2018-12-07T03:09:09.522Z,10.8
2018-12-07T03:09:58.809Z,10.8
2018-12-07T03:10:49.188Z,10.8
2018-12-07T03:11:38.196Z,10.8
2018-12-07T03:12:29.628Z,10.8
2018-12-07T03:13:19.336Z,10.8
2018-12-07T03:14:09.589Z,10.8
2018-12-07T03:14:59.999Z,10.8
2018-12-07T03:15:49.502Z,10.8
2018-12-07T03:16:40.126Z,10.8
2018-12-07T03:17:29.335Z,10.8
2018-12-07T03:18:19.628Z,10.8
2018-12-07T03:19:09.653Z,10.8
2018-12-07T03:19:59.820Z,10.8
2018-12-07T03:20:49.874Z,10.8
2018-12-07T03:21:40.723Z,10.8
2018-12-07T03:22:29.382Z,10.8
2018-12-07T03:23:20.280Z,10.8
2018-12-07T03:24:10.148Z,10.8
2018-12-07T03:25:00.495Z,10.8
2018-12-07T03:25:50.792Z,10.8
2018-12-07T03:26:40.503Z,10.8
2018-12-07T03:27:30.931Z,10.8
2018-12-07T03:28:20.376Z,10.8
2018-12-07T03:29:10.128Z,10.8
2018-12-07T03:30:00.560Z,10.8
2018-12-07T03:30:51.561Z,10.8
2018-12-07T03:31:40.943Z,10.8
2018-12-07T03:32:30.701Z,10.8
2018-12-07T03:33:21.463Z,10.8
2018-12-07T03:34:11.590Z,10.8
2018-12-07T03:35:01.381Z,10.8
2018-12-07T03:35:51.710Z,10.8
2018-12-07T03:36:40.934Z,10.8
2018-12-07T03:37:31.811Z,10.8
2018-12-07T03:38:21.032Z,10.8
2018-12-07T03:39:11.960Z,10.8
2018-12-07T03:40:01.357Z,10.8
2018-12-07T03:40:50.659Z,10.8
2018-12-07T03:41:40.745Z,10.8
2018-12-07T03:42:31.873Z,10.8
2018-12-07T03:43:21.135Z,10.8
2018-12-07T03:44:11.737Z,10.8
2018-12-07T03:45:04.135Z,10.8
2018-12-07T03:45:51.262Z,10.8
2018-12-07T03:46:41.095Z,10.8
2018-12-07T03:47:31.114Z,10.8
2018-12-07T03:48:22.536Z,10.8
2018-12-07T03:49:12.356Z,10.8
2018-12-07T03:50:02.673Z,10.8
2018-12-07T03:50:51.690Z,10.8
2018-12-07T03:51:41.744Z,10.8
2018-12-07T03:52:32.643Z,10.8
2018-12-07T03:53:22.889Z,10.7
2018-12-07T03:54:14.012Z,10.7
2018-12-07T03:55:02.953Z,10.8
2018-12-07T03:55:52.817Z,10.7
2018-12-07T03:56:42.551Z,10.8
2018-12-07T03:57:32.936Z,10.7
2018-12-07T03:58:22.419Z,10.8
2018-12-07T03:59:11.937Z,10.7
2018-12-07T04:00:03.294Z,10.8
2018-12-07T04:00:52.916Z,10.8
2018-12-07T04:01:43.231Z,10.7
2018-12-07T04:02:32.458Z,10.7
2018-12-07T04:03:23.677Z,10.7
2018-12-07T04:04:13.134Z,10.7
2018-12-07T04:05:03.463Z,10.8
2018-12-07T04:05:53.812Z,10.7
2018-12-07T04:06:43.438Z,10.7
2018-12-07T04:07:33.340Z,10.7
2018-12-07T04:08:23.004Z,10.7
2018-12-07T04:09:12.987Z,10.7
2018-12-07T04:10:03.332Z,10.7
2018-12-07T04:10:52.808Z,10.7
2018-12-07T04:11:42.347Z,10.7
2018-12-07T04:12:33.184Z,10.7
2018-12-07T04:13:22.986Z,10.7
2018-12-07T04:14:12.558Z,10.7
2018-12-07T04:15:03.478Z,10.6
2018-12-07T04:15:53.960Z,10.7
2018-12-07T04:16:43.723Z,10.7
2018-12-07T04:17:33.461Z,10.7
2018-12-07T04:18:24.423Z,10.7
2018-12-07T04:19:13.078Z,10.7
2018-12-07T04:20:04.738Z,10.7
2018-12-07T04:20:55.068Z,10.7
2018-12-07T04:21:44.040Z,10.7
2018-12-07T04:22:33.795Z,10.7
2018-12-07T04:23:24.680Z,10.7
2018-12-07T04:24:14.143Z,10.6
2018-12-07T04:25:18.717Z,10.7
2018-12-07T04:25:54.832Z,10.7
2018-12-07T04:26:44.947Z,10.6
2018-12-07T04:27:34.432Z,10.6
2018-12-07T04:28:24.503Z,10.6
2018-12-07T04:29:14.835Z,10.7
2018-12-07T04:30:04.366Z,10.6
2018-12-07T04:30:55.657Z,10.7
2018-12-07T04:31:44.575Z,10.6
2018-12-07T04:32:34.803Z,10.6
2018-12-07T04:33:25.440Z,10.6
2018-12-07T04:34:15.187Z,10.7
2018-12-07T04:35:05.259Z,10.6
2018-12-07T04:35:55.922Z,10.7
2018-12-07T04:36:45.152Z,10.7
2018-12-07T04:54:01.675Z,10.6
2018-12-07T04:54:51.402Z,10.6
2018-12-07T04:55:41.144Z,10.6
2018-12-07T04:56:31.206Z,10.6
2018-12-07T04:57:21.860Z,10.6
2018-12-07T04:58:11.626Z,10.6
2018-12-07T04:59:02.371Z,10.6
2018-12-07T04:59:52.318Z,10.6
2018-12-07T05:00:41.584Z,10.6
2018-12-07T05:01:31.904Z,10.6
2018-12-07T05:02:21.918Z,10.6
2018-12-07T05:03:12.021Z,10.6
2018-12-07T05:04:01.179Z,10.6
2018-12-07T05:04:51.818Z,10.6
2018-12-07T05:05:42.438Z,10.6
2018-12-07T05:06:31.761Z,10.6
2018-12-07T05:07:22.269Z,10.6
2018-12-07T05:08:12.903Z,10.6
2018-12-07T05:09:03.141Z,10.6
2018-12-07T05:09:54.080Z,10.6
2018-12-07T05:10:42.773Z,10.6
2018-12-07T05:11:32.343Z,10.6
2018-12-07T05:12:22.370Z,10.6
2018-12-07T05:13:12.099Z,10.6
2018-12-07T05:14:01.855Z,10.6
2018-12-07T05:14:53.343Z,10.6
2018-12-07T05:15:42.589Z,10.6
2018-12-07T05:16:32.387Z,10.6
2018-12-07T05:17:22.670Z,10.6
2018-12-07T05:18:12.435Z,10.6
2018-12-07T05:19:02.238Z,10.6
2018-12-07T05:19:52.585Z,10.6
2018-12-07T05:20:43.052Z,10.6
2018-12-07T05:21:33.234Z,10.6
2018-12-07T05:22:23.330Z,10.6
2018-12-07T05:23:12.555Z,10.6
2018-12-07T05:24:03.075Z,10.6
2018-12-07T05:24:54.217Z,10.6
2018-12-07T05:25:43.590Z,10.6
2018-12-07T05:26:33.628Z,10.6
2018-12-07T05:27:23.357Z,10.6
2018-12-07T05:28:13.907Z,10.6
2018-12-07T05:29:03.704Z,10.6
2018-12-07T05:29:53.810Z,10.6
2018-12-07T05:30:43.384Z,10.6
2018-12-07T05:31:34.454Z,10.6
2018-12-07T05:32:23.537Z,10.6
2018-12-07T05:33:13.982Z,10.6
2018-12-07T05:34:03.764Z,10.6
2018-12-07T05:34:53.701Z,10.6
2018-12-07T05:35:43.652Z,10.6
2018-12-07T05:36:34.319Z,10.6
2018-12-07T05:37:24.090Z,10.6
2018-12-07T05:38:13.289Z,10.6
2018-12-07T05:39:03.347Z,10.6
2018-12-07T05:39:54.821Z,10.6
2018-12-07T05:40:43.748Z,10.6
2018-12-07T05:41:34.446Z,10.6
2018-12-07T05:42:24.129Z,10.5
2018-12-07T05:43:14.557Z,10.6
2018-12-07T05:44:04.354Z,10.6
2018-12-07T05:44:54.599Z,10.5
2018-12-07T05:45:44.506Z,10.5
2018-12-07T05:46:35.155Z,10.5
2018-12-07T05:47:23.621Z,10.5
2018-12-07T05:48:14.518Z,10.6
2018-12-07T05:49:04.296Z,10.6
2018-12-07T05:49:54.333Z,10.5
2018-12-07T05:50:45.190Z,10.6
2018-12-07T05:51:35.901Z,10.5
2018-12-07T05:52:25.273Z,10.5
2018-12-07T05:53:15.386Z,10.5
2018-12-07T05:54:06.031Z,10.5
2018-12-07T05:54:55.497Z,10.5
2018-12-07T05:55:45.243Z,10.5
2018-12-07T05:56:35.353Z,10.5
2018-12-07T05:57:25.575Z,10.5
2018-12-07T05:58:15.193Z,10.5
2018-12-07T05:59:05.315Z,10.5
2018-12-07T05:59:55.310Z,10.5
2018-12-07T06:00:45.047Z,10.5
2018-12-07T06:01:35.677Z,10.5
2018-12-07T06:02:25.297Z,10.5
2018-12-07T06:03:15.277Z,10.5
2018-12-07T06:04:05.591Z,10.5
2018-12-07T06:04:55.314Z,10.5
2018-12-07T06:05:46.304Z,10.5
2018-12-07T06:06:35.185Z,10.5
2018-12-07T06:07:25.139Z,10.5
2018-12-07T06:08:16.062Z,10.5
2018-12-07T06:09:06.639Z,10.5
2018-12-07T06:09:55.644Z,10.5
2018-12-07T06:10:45.631Z,10.5
2018-12-07T06:11:36.306Z,10.5
2018-12-07T06:12:25.771Z,10.5
2018-12-07T06:13:17.249Z,10.5
2018-12-07T06:14:06.424Z,10.5
2018-12-07T06:14:55.969Z,10.5
2018-12-07T06:15:45.753Z,10.5
2018-12-07T06:16:36.713Z,10.5
2018-12-07T06:17:26.926Z,10.5
2018-12-07T06:18:17.083Z,10.5
2018-12-07T06:19:06.348Z,10.5
2018-12-07T06:19:56.056Z,10.5
2018-12-07T06:20:46.755Z,10.5
2018-12-07T06:21:37.068Z,10.5
2018-12-07T06:22:26.753Z,10.5
2018-12-07T06:23:17.370Z,10.5
2018-12-07T06:24:07.490Z,10.5
2018-12-07T06:24:57.593Z,10.5
2018-12-07T06:25:47.370Z,10.6
2018-12-07T06:26:36.895Z,10.6
2018-12-07T06:27:26.867Z,10.6
2018-12-07T06:28:17.212Z,10.6
2018-12-07T06:29:07.497Z,10.6
2018-12-07T06:29:57.684Z,10.6
2018-12-07T06:30:46.787Z,10.5
2018-12-07T06:31:37.140Z,10.6
2018-12-07T06:32:27.744Z,10.6
2018-12-07T06:33:18.027Z,10.6
2018-12-07T06:34:07.092Z,10.6
2018-12-07T06:34:57.973Z,10.6
2018-12-07T06:35:47.425Z,10.6
2018-12-07T06:36:37.261Z,10.6
2018-12-07T06:37:27.795Z,10.6
2018-12-07T06:38:17.894Z,10.6
2018-12-07T06:39:07.829Z,10.6
2018-12-07T06:39:59.572Z,10.6
2018-12-07T06:40:49.065Z,10.6
2018-12-07T06:41:38.085Z,10.6
2018-12-07T06:42:27.359Z,10.6
2018-12-07T06:43:18.287Z,10.6
2018-12-07T06:44:07.878Z,10.6
2018-12-07T06:44:59.451Z,10.7
2018-12-07T06:45:47.634Z,10.7
2018-12-07T06:46:38.143Z,10.7
2018-12-07T06:47:29.253Z,10.7
2018-12-07T06:48:18.578Z,10.7
2018-12-07T06:49:09.477Z,10.7
2018-12-07T06:49:58.875Z,10.7
2018-12-07T06:50:49.815Z,10.7
2018-12-07T06:51:39.418Z,10.7
2018-12-07T06:52:29.648Z,10.7
2018-12-07T06:53:19.345Z,10.7
2018-12-07T06:54:08.990Z,10.7
2018-12-07T06:54:58.895Z,10.7
2018-12-07T06:55:48.975Z,10.7
2018-12-07T06:56:39.652Z,10.7
2018-12-07T06:57:29.075Z,10.7
2018-12-07T06:58:19.472Z,10.7
2018-12-07T06:59:09.720Z,10.8
2018-12-07T06:59:59.312Z,10.8
2018-12-07T07:00:48.780Z,10.8
2018-12-07T07:01:40.201Z,10.8
2018-12-07T07:02:30.220Z,10.8
2018-12-07T07:03:19.842Z,10.8
2018-12-07T07:04:09.812Z,10.8
2018-12-07T07:05:00.102Z,10.8
2018-12-07T07:05:50.737Z,10.8
2018-12-07T07:06:40.287Z,10.8
2018-12-07T07:07:29.242Z,10.8
2018-12-07T07:08:20.361Z,10.8
2018-12-07T07:09:10.299Z,10.8
2018-12-07T07:10:00.797Z,10.8
2018-12-07T07:10:50.861Z,10.9
2018-12-07T07:11:40.595Z,10.9
2018-12-07T07:12:32.826Z,10.9
2018-12-07T07:13:20.515Z,10.9
2018-12-07T07:14:10.189Z,10.9
2018-12-07T07:15:01.049Z,10.9
2018-12-07T07:15:50.883Z,10.9
2018-12-07T07:16:40.937Z,10.9
2018-12-07T07:17:30.521Z,10.9
2018-12-07T07:18:22.598Z,10.9
2018-12-07T07:19:10.853Z,11
2018-12-07T07:20:01.189Z,11
2018-12-07T07:20:50.644Z,11
2018-12-07T07:21:41.294Z,11
2018-12-07T07:22:30.794Z,11.1
2018-12-07T07:23:21.108Z,11.1
2018-12-07T07:24:11.568Z,11.1
2018-12-07T07:25:01.781Z,11.1
2018-12-07T07:25:51.936Z,11.1
2018-12-07T07:26:41.621Z,11.1
2018-12-07T07:27:31.186Z,11.1
2018-12-07T07:28:20.905Z,11.1
2018-12-07T07:29:12.728Z,11.1
2018-12-07T07:30:02.563Z,11.2
2018-12-07T07:30:53.400Z,11.2
2018-12-07T07:31:49.887Z,11.3
2018-12-07T07:32:31.197Z,11.3
2018-12-07T07:33:21.530Z,11.3
2018-12-07T07:34:12.677Z,11.3
2018-12-07T07:35:01.927Z,11.4
2018-12-07T07:35:52.537Z,11.4
2018-12-07T07:36:42.415Z,11.4
2018-12-07T07:37:32.614Z,11.5
2018-12-07T07:38:21.034Z,11.5
2018-12-07T07:39:13.232Z,11.6
2018-12-07T07:40:01.754Z,11.7
2018-12-07T07:40:52.297Z,11.8
2018-12-07T07:41:42.129Z,11.8
2018-12-07T07:42:33.652Z,11.9
2018-12-07T07:43:22.212Z,11.9
2018-12-07T07:44:13.636Z,12
2018-12-07T07:45:02.937Z,12
2018-12-07T07:45:52.927Z,12
2018-12-07T07:46:42.804Z,12
2018-12-07T07:47:33.357Z,12.1
2018-12-07T07:48:22.829Z,12.1
2018-12-07T07:49:13.217Z,12.1
2018-12-07T07:50:03.811Z,12.1
2018-12-07T07:50:52.814Z,12.1
2018-12-07T07:51:44.172Z,12.1
2018-12-07T07:52:32.852Z,12.1
2018-12-07T07:53:23.001Z,12.2
2018-12-07T07:54:13.534Z,12.2
2018-12-07T07:55:04.172Z,12.3
2018-12-07T07:55:53.976Z,12.2
2018-12-07T07:56:43.681Z,12.2
2018-12-07T07:57:33.196Z,12.2
2018-12-07T07:58:24.194Z,12.2
2018-12-07T07:59:12.841Z,12.2
2018-12-07T08:00:03.933Z,12.2
2018-12-07T08:00:54.556Z,12.2
2018-12-07T08:01:44.021Z,12.2
2018-12-07T08:02:35.365Z,12.2
2018-12-07T08:03:23.879Z,12.2
2018-12-07T08:04:13.658Z,12.2
2018-12-07T08:05:04.523Z,12.3
2018-12-07T08:05:54.283Z,12.3
2018-12-07T08:06:43.823Z,12.3
2018-12-07T08:07:33.883Z,12.3
2018-12-07T08:08:24.747Z,12.3
2018-12-07T08:09:15.205Z,12.3
2018-12-07T08:10:04.303Z,12.3
2018-12-07T08:10:54.900Z,12.3
2018-12-07T08:11:44.505Z,12.3
2018-12-07T08:12:34.310Z,12.3
2018-12-07T08:13:24.817Z,12.3
2018-12-07T08:14:15.204Z,12.3
2018-12-07T08:15:05.045Z,12.3
2018-12-07T08:15:54.810Z,12.3
2018-12-07T08:16:44.890Z,12.3
2018-12-07T08:17:34.615Z,12.3
2018-12-07T08:18:25.250Z,12.3
2018-12-07T08:19:14.908Z,12.3
2018-12-07T08:20:05.405Z,12.4
2018-12-07T08:20:54.867Z,12.3
2018-12-07T08:21:44.635Z,12.4
2018-12-07T08:22:35.459Z,12.4
2018-12-07T08:23:24.622Z,12.4
2018-12-07T08:24:15.979Z,12.4
2018-12-07T08:25:03.614Z,12.4
2018-12-07T08:25:54.981Z,12.4
2018-12-07T08:26:45.599Z,12.4
2018-12-07T08:27:36.401Z,12.4
2018-12-07T08:28:27.584Z,12.4
2018-12-07T08:29:16.517Z,12.4
2018-12-07T08:30:06.311Z,12.4
2018-12-07T08:30:56.398Z,12.4
2018-12-07T08:31:46.216Z,12.4
2018-12-07T08:32:36.421Z,12.4
2018-12-07T08:33:26.306Z,12.4
2018-12-07T08:34:15.541Z,12.5
2018-12-07T08:35:06.268Z,12.6
2018-12-07T08:35:56.525Z,12.6
2018-12-07T08:36:45.698Z,12.6
2018-12-07T08:37:36.318Z,12.7
2018-12-07T08:38:25.866Z,12.7
2018-12-07T08:39:16.907Z,12.7
2018-12-07T08:40:06.771Z,12.7
2018-12-07T08:40:57.346Z,12.7
2018-12-07T08:41:46.577Z,12.7
2018-12-07T08:42:36.581Z,12.8
2018-12-07T08:43:27.538Z,12.8
2018-12-07T08:44:17.264Z,12.8
2018-12-07T08:45:07.111Z,12.8
2018-12-07T08:45:55.703Z,12.8
2018-12-07T08:46:46.670Z,12.8
2018-12-07T08:47:36.965Z,12.8
2018-12-07T08:48:27.270Z,12.8
2018-12-07T08:49:17.297Z,12.8
2018-12-07T08:50:07.255Z,12.8
2018-12-07T08:50:57.720Z,12.8
2018-12-07T08:51:48.115Z,12.8
2018-12-07T08:52:37.017Z,12.8
2018-12-07T09:08:23.119Z,12.6
2018-12-07T09:09:13.486Z,12.6
2018-12-07T09:10:04.083Z,12.6
2018-12-07T09:10:53.643Z,12.6
2018-12-07T09:11:44.431Z,12.6
2018-12-07T09:12:33.992Z,12.6
2018-12-07T09:13:23.457Z,12.6
2018-12-07T09:14:14.083Z,12.7
2018-12-07T09:15:04.316Z,12.8
2018-12-07T09:15:53.825Z,12.8
2018-12-07T09:16:45.406Z,12.8
2018-12-07T09:17:34.763Z,12.9
2018-12-07T09:18:23.773Z,12.9
2018-12-07T09:19:14.603Z,12.9
2018-12-07T09:20:04.468Z,12.9
2018-12-07T09:21:01.843Z,12.9
2018-12-07T09:21:44.730Z,12.9
2018-12-07T09:22:34.820Z,12.9
2018-12-07T09:23:24.808Z,12.9
2018-12-07T09:24:13.158Z,13
2018-12-07T09:25:04.469Z,13
2018-12-07T09:25:55.038Z,13
2018-12-07T09:26:45.425Z,13.1
2018-12-07T09:27:34.867Z,13.1
2018-12-07T09:28:25.065Z,13.1
2018-12-07T09:29:15.265Z,13.1
2018-12-07T09:30:04.762Z,13.1
2018-12-07T09:30:55.130Z,13.1
2018-12-07T09:31:44.952Z,13.2
2018-12-07T09:32:35.498Z,13.2
2018-12-07T09:33:26.114Z,13.2
2018-12-07T09:34:15.599Z,13.2
2018-12-07T09:35:05.294Z,13.2
2018-12-07T09:35:54.872Z,13.2
2018-12-07T09:36:46.551Z,13.2
2018-12-07T09:37:37.231Z,13.2
2018-12-07T09:38:25.342Z,13.2
2018-12-07T09:39:15.382Z,13.3
2018-12-07T09:40:05.556Z,13.3
2018-12-07T09:40:55.792Z,13.3
2018-12-07T09:41:46.451Z,13.3
2018-12-07T09:42:35.669Z,13.3
2018-12-07T09:43:26.211Z,13.3
2018-12-07T09:44:16.831Z,13.3
2018-12-07T09:45:05.936Z,13.3
2018-12-07T09:45:56.931Z,13.3
2018-12-07T09:46:46.743Z,13.3
2018-12-07T09:47:36.044Z,13.3
2018-12-07T09:48:25.876Z,13.3
2018-12-07T09:49:15.749Z,13.3
2018-12-07T09:50:06.311Z,13.3
2018-12-07T09:50:55.711Z,13.3
2018-12-07T09:51:46.861Z,13.3
2018-12-07T09:52:37.146Z,13.3
2018-12-07T09:53:27.018Z,13.3
2018-12-07T09:54:16.447Z,13.3
2018-12-07T09:55:07.416Z,13.3
2018-12-07T09:55:57.508Z,13.3
2018-12-07T09:56:46.920Z,13.3
2018-12-07T09:57:37.264Z,13.3
2018-12-07T09:58:27.373Z,13.3
2018-12-07T09:59:16.233Z,13.3
2018-12-07T10:00:07.173Z,13.3
2018-12-07T10:00:58.318Z,13.3
2018-12-07T10:01:47.228Z,13.3
2018-12-07T10:02:37.293Z,13.3
2018-12-07T10:03:27.896Z,13.3
2018-12-07T10:04:18.045Z,13.3
2018-12-07T10:05:08.051Z,13.3
2018-12-07T10:05:57.348Z,13.3
2018-12-07T10:06:47.865Z,13.3
2018-12-07T10:07:37.717Z,13.3
2018-12-07T10:08:28.567Z,13.3
2018-12-07T10:09:18.299Z,13.3
2018-12-07T10:10:07.992Z,13.3
2018-12-07T10:10:57.603Z,13.3
2018-12-07T10:11:47.446Z,13.3
2018-12-07T10:12:37.825Z,13.3
2018-12-07T10:13:27.333Z,13.3
2018-12-07T10:14:17.888Z,13.4
2018-12-07T10:15:07.937Z,13.3
2018-12-07T10:15:58.222Z,13.4
2018-12-07T10:16:48.622Z,13.3
2018-12-07T10:17:37.677Z,13.3
2018-12-07T10:18:28.332Z,13.3
2018-12-07T10:19:19.063Z,13.3
2018-12-07T10:20:09.449Z,13.4
2018-12-07T10:20:59.164Z,13.4
2018-12-07T10:21:48.040Z,13.4
2018-12-07T10:22:40.947Z,13.4
2018-12-07T10:23:29.097Z,13.4
2018-12-07T10:24:19.372Z,13.4
2018-12-07T10:25:09.614Z,13.3
2018-12-07T10:25:59.455Z,13.4
2018-12-07T10:26:49.807Z,13.4
2018-12-07T10:27:39.287Z,13.4
2018-12-07T10:28:28.809Z,13.4
2018-12-07T10:29:19.439Z,13.4
2018-12-07T10:30:10.579Z,13.4
2018-12-07T10:30:59.271Z,13.4
2018-12-07T10:31:50.162Z,13.4
2018-12-07T10:32:39.405Z,13.4
2018-12-07T10:33:29.313Z,13.4
2018-12-07T10:34:20.316Z,13.4
2018-12-07T10:35:10.134Z,13.4
2018-12-07T10:36:00.389Z,13.4
2018-12-07T10:36:49.954Z,13.4
2018-12-07T10:37:39.999Z,13.4
2018-12-07T10:38:30.036Z,13.4
2018-12-07T10:39:19.946Z,13.4
2018-12-07T10:40:10.283Z,13.4
2018-12-07T10:40:59.359Z,13.4
2018-12-07T10:41:50.036Z,13.4
2018-12-07T10:42:40.819Z,13.4
2018-12-07T10:43:30.151Z,13.4
2018-12-07T10:44:21.001Z,13.4
2018-12-07T10:45:10.288Z,13.4
2018-12-07T10:45:59.732Z,13.4
2018-12-07T10:46:50.918Z,13.4
2018-12-07T10:47:41.378Z,13.4
2018-12-07T10:48:29.641Z,13.4
2018-12-07T10:49:20.896Z,13.4
2018-12-07T10:50:10.895Z,13.4
2018-12-07T10:51:08.415Z,13.4
2018-12-07T10:51:51.550Z,13.4
2018-12-07T10:52:41.281Z,13.4
2018-12-07T10:53:30.638Z,13.4
2018-12-07T10:54:21.151Z,13.5
2018-12-07T10:55:13.465Z,13.4
2018-12-07T10:56:00.772Z,13.5
2018-12-07T10:56:51.392Z,13.5
2018-12-07T10:57:41.430Z,13.5
2018-12-07T10:58:31.489Z,13.4
2018-12-07T10:59:20.915Z,13.5
2018-12-07T11:00:11.817Z,13.4
2018-12-07T11:01:01.283Z,13.4
2018-12-07T11:01:51.590Z,13.5
2018-12-07T11:02:43.750Z,13.4
2018-12-07T11:03:31.039Z,13.4
2018-12-07T11:04:21.700Z,13.4
2018-12-07T11:05:12.752Z,13.4
2018-12-07T11:06:01.919Z,13.4
2018-12-07T11:06:52.073Z,13.4
2018-12-07T11:07:42.318Z,13.5
2018-12-07T11:08:32.394Z,13.4
2018-12-07T11:09:21.101Z,13.4
2018-12-07T11:10:11.028Z,13.5
2018-12-07T11:11:02.345Z,13.4
2018-12-07T11:11:52.410Z,13.5
2018-12-07T11:12:42.479Z,13.5
2018-12-07T11:13:32.469Z,13.5
2018-12-07T11:14:23.417Z,13.5
2018-12-07T11:15:12.424Z,13.5
2018-12-07T11:16:02.622Z,13.4
2018-12-07T11:16:52.969Z,13.4
2018-12-07T11:17:42.309Z,13.5
2018-12-07T11:18:33.652Z,13.4
2018-12-07T11:19:21.841Z,13.5
2018-12-07T11:20:12.731Z,13.5
2018-12-07T11:21:02.814Z,13.5
2018-12-07T11:21:53.116Z,13.5
2018-12-07T11:22:42.869Z,13.5
2018-12-07T11:23:32.139Z,13.5
2018-12-07T11:24:22.183Z,13.5
2018-12-07T11:25:12.533Z,13.5
2018-12-07T11:26:03.246Z,13.6
2018-12-07T11:26:52.880Z,13.5
2018-12-07T11:27:42.441Z,13.5
2018-12-07T11:28:32.827Z,13.5
2018-12-07T11:29:23.046Z,13.5
2018-12-07T11:30:13.526Z,13.6
2018-12-07T11:31:01.499Z,13.6
2018-12-07T11:31:54.074Z,13.6
2018-12-07T11:32:43.293Z,13.6
2018-12-07T11:33:33.328Z,13.6
2018-12-07T11:34:23.129Z,13.6
2018-12-07T11:35:13.586Z,13.6
2018-12-07T11:36:10.745Z,13.6
2018-12-07T11:36:53.283Z,13.6
2018-12-07T11:37:43.475Z,13.6
2018-12-07T11:38:33.850Z,13.6
2018-12-07T11:39:24.065Z,13.6
2018-12-07T11:40:14.440Z,13.6
2018-12-07T11:41:03.736Z,13.6
2018-12-07T11:41:53.992Z,13.6
2018-12-07T11:42:43.767Z,13.6
2018-12-07T11:43:34.316Z,13.6
2018-12-07T11:44:23.828Z,13.6
2018-12-07T11:45:14.153Z,13.6
2018-12-07T11:46:04.801Z,13.6
2018-12-07T11:46:54.583Z,13.6
2018-12-07T11:47:44.070Z,13.6
2018-12-07T11:48:34.683Z,13.6
2018-12-07T11:49:24.189Z,13.6
2018-12-07T11:50:14.453Z,13.6
2018-12-07T11:51:05.555Z,13.6
2018-12-07T11:51:55.169Z,13.6
2018-12-07T11:52:45.231Z,13.6
2018-12-07T11:53:35.314Z,13.7
2018-12-07T11:54:24.865Z,13.7
2018-12-07T11:55:15.159Z,13.7
2018-12-07T11:56:05.967Z,13.8
2018-12-07T11:56:55.460Z,13.8
2018-12-07T11:57:44.920Z,13.7
2018-12-07T11:58:34.779Z,13.7
2018-12-07T11:59:25.660Z,13.7